Kelowna Airport
CYLW : now visible

Airfield :











YOU CAN JOIN US ON...

 
LOGIN :

Register | Disclaimer

   EN    FR    IT 

 









Legend :    VFR   Marginal VFR   IFR   Intensive IFR   Very Intensive IFR
Visi :
Ceiling :
>= 8 km
>= 3000ft
5 to 8 km
1000 to 3000 ft
1500m to 5 km
500 to 1000 ft
800 to 1500m
200 to 500 ft
< 800m
< 200 ft
Symbols :   Thunderstorms  Fog  Heavy snow  Heavy precipitations  Wind > 20 kt






- Airport Elevation : 1409 ft
- IATA code : YLW


CYLW - Kelowna

CURRENT METAR :
  • 080835Z AUTO 33004KT 320V040 8SM SCT011 SCT017 OVC046 02/02 A2984 RMK SLP120

EXPIRED METARs :
  • 080800Z AUTO 00000KT 9SM OVC011 02/02 A2984 RMK SLP119
  • 080756Z AUTO VRB02KT 9SM OVC011 02/02 A2984 RMK SLP119
  • 080700Z AUTO 09003KT 9SM -RA OVC011 03/03 A2982 RMK SLP113
  • 080655Z AUTO 10003KT 7SM -RA OVC011 03/03 A2982 RMK SLP113
  • 080635Z AUTO 01003KT 9SM -RA OVC009 02/02 A2981 RMK SLP112
  • 080600Z AUTO 00000KT 9SM OVC011 02/02 A2979 RMK SLP103

TAF TAF CYLW
Valid from the 08 at 07:00 until the 08 at 19:00 UTC


080638Z 0807/0819 VRB03KT P6SM OVC012
TEMPO 0807/0809 2SM -RA BR OVC008
FM080900 VRB03KT P6SM SCT020
TEMPO 0810/0814 1SM BR BKN020
FM081400 VRB03KT P6SM SKC RMK FCST BASED ON AUTO OBS. NXT FCST BY 081300Z



MET'MAP, your aeronautical weather chart ! - Copyright ORBIFLY December 2007 - Disclaimer

ORBIFLY MET'MAP TEAM :

Programming & Development : Alexandra Zaïnal
Concept & original design : Baudouin d'Aumeries
Assistance for programming : Marc-Olivier Méhu
Technical & hardware support : Manuel Goepfert

Contact : metmap@orbifly.com




SOURCES & CREDITS :

   NOAA       Earth
Advisory